sensor_id;sensor_type;location;lat;lon;timestamp;pressure;altitude;pressure_sealevel;temperature
68939;BMP180;59064;45.294;11.816;2023-03-22T00:01:26;101349.40;;;11.10
68939;BMP180;59064;45.294;11.816;2023-03-22T00:03:55;101357.00;;;11.10
68939;BMP180;59064;45.294;11.816;2023-03-22T00:06:21;101351.20;;;11.18
68939;BMP180;59064;45.294;11.816;2023-03-22T00:08:48;101343.20;;;11.20
68939;BMP180;59064;45.294;11.816;2023-03-22T00:11:19;101343.60;;;11.30
68939;BMP180;59064;45.294;11.816;2023-03-22T00:13:46;101342.40;;;11.38
68939;BMP180;59064;45.294;11.816;2023-03-22T00:16:13;101346.20;;;11.42
68939;BMP180;59064;45.294;11.816;2023-03-22T00:18:39;101345.20;;;11.46
68939;BMP180;59064;45.294;11.816;2023-03-22T00:21:05;101345.80;;;11.50
68939;BMP180;59064;45.294;11.816;2023-03-22T00:23:30;101348.20;;;11.50
68939;BMP180;59064;45.294;11.816;2023-03-22T00:25:56;101346.60;;;11.50
68939;BMP180;59064;45.294;11.816;2023-03-22T00:28:23;101349.00;;;11.50
68939;BMP180;59064;45.294;11.816;2023-03-22T00:30:57;101347.00;;;11.50
68939;BMP180;59064;45.294;11.816;2023-03-22T00:33:23;101347.40;;;11.50
68939;BMP180;59064;45.294;11.816;2023-03-22T00:35:51;101344.40;;;11.42
68939;BMP180;59064;45.294;11.816;2023-03-22T00:38:17;101343.60;;;11.50
68939;BMP180;59064;45.294;11.816;2023-03-22T00:40:43;101340.60;;;11.50
68939;BMP180;59064;45.294;11.816;2023-03-22T00:43:09;101336.00;;;11.40
68939;BMP180;59064;45.294;11.816;2023-03-22T00:45:34;101336.00;;;11.40
68939;BMP180;59064;45.294;11.816;2023-03-22T00:48:06;101332.00;;;11.36
68939;BMP180;59064;45.294;11.816;2023-03-22T00:50:32;101330.20;;;11.30
68939;BMP180;59064;45.294;11.816;2023-03-22T00:52:58;101328.00;;;11.34
68939;BMP180;59064;45.294;11.816;2023-03-22T00:55:23;101326.20;;;11.40
68939;BMP180;59064;45.294;11.816;2023-03-22T00:57:49;101326.60;;;11.50
68939;BMP180;59064;45.294;11.816;2023-03-22T01:00:15;101324.00;;;11.54
68939;BMP180;59064;45.294;11.816;2023-03-22T01:02:41;101323.60;;;11.60
68939;BMP180;59064;45.294;11.816;2023-03-22T01:05:08;101323.60;;;11.70
68939;BMP180;59064;45.294;11.816;2023-03-22T01:07:40;101318.40;;;11.70
68939;BMP180;59064;45.294;11.816;2023-03-22T01:10:06;101319.20;;;11.68
68939;BMP180;59064;45.294;11.816;2023-03-22T01:12:33;101314.80;;;11.60
68939;BMP180;59064;45.294;11.816;2023-03-22T01:14:58;101313.80;;;11.50
68939;BMP180;59064;45.294;11.816;2023-03-22T01:17:24;101313.00;;;11.40
68939;BMP180;59064;45.294;11.816;2023-03-22T01:19:49;101309.40;;;11.34
68939;BMP180;59064;45.294;11.816;2023-03-22T01:22:15;101311.40;;;11.30
68939;BMP180;59064;45.294;11.816;2023-03-22T01:24:40;101307.40;;;11.30
68939;BMP180;59064;45.294;11.816;2023-03-22T01:27:06;101309.80;;;11.20
68939;BMP180;59064;45.294;11.816;2023-03-22T01:29:31;101301.80;;;11.10
68939;BMP180;59064;45.294;11.816;2023-03-22T01:31:57;101302.00;;;11.00
68939;BMP180;59064;45.294;11.816;2023-03-22T01:34:23;101303.80;;;10.90
68939;BMP180;59064;45.294;11.816;2023-03-22T01:36:48;101299.00;;;10.90
68939;BMP180;59064;45.294;11.816;2023-03-22T01:39:15;101295.40;;;10.80
68939;BMP180;59064;45.294;11.816;2023-03-22T01:41:41;101294.60;;;10.80
68939;BMP180;59064;45.294;11.816;2023-03-22T01:44:21;101293.60;;;10.80
68939;BMP180;59064;45.294;11.816;2023-03-22T01:46:48;101296.60;;;10.80
68939;BMP180;59064;45.294;11.816;2023-03-22T01:49:25;101298.00;;;10.80
68939;BMP180;59064;45.294;11.816;2023-03-22T01:51:54;101298.20;;;10.80
68939;BMP180;59064;45.294;11.816;2023-03-22T01:54:31;101290.40;;;10.80
68939;BMP180;59064;45.294;11.816;2023-03-22T01:56:58;101293.40;;;10.80
68939;BMP180;59064;45.294;11.816;2023-03-22T01:59:25;101294.40;;;10.80
68939;BMP180;59064;45.294;11.816;2023-03-22T02:01:51;101292.80;;;10.86
68939;BMP180;59064;45.294;11.816;2023-03-22T02:04:19;101294.00;;;10.90
68939;BMP180;59064;45.294;11.816;2023-03-22T02:06:50;101290.80;;;10.90
68939;BMP180;59064;45.294;11.816;2023-03-22T02:09:19;101288.40;;;10.90
68939;BMP180;59064;45.294;11.816;2023-03-22T02:12:24;101287.20;;;10.90
68939;BMP180;59064;45.294;11.816;2023-03-22T02:17:50;101287.40;;;10.96
68939;BMP180;59064;45.294;11.816;2023-03-22T02:26:16;101281.80;;;11.08
68939;BMP180;59064;45.294;11.816;2023-03-22T02:34:11;101282.00;;;11.10
68939;BMP180;59064;45.294;11.816;2023-03-22T02:45:19;101287.00;;;11.20
68939;BMP180;59064;45.294;11.816;2023-03-22T02:50:59;101282.40;;;11.20
68939;BMP180;59064;45.294;11.816;2023-03-22T02:53:33;101285.60;;;11.20
68939;BMP180;59064;45.294;11.816;2023-03-22T02:56:13;101284.20;;;11.18
68939;BMP180;59064;45.294;11.816;2023-03-22T02:58:48;101283.00;;;11.10
68939;BMP180;59064;45.294;11.816;2023-03-22T03:01:32;101282.40;;;11.10
68939;BMP180;59064;45.294;11.816;2023-03-22T03:04:01;101283.80;;;11.10
68939;BMP180;59064;45.294;11.816;2023-03-22T03:06:34;101283.20;;;11.10
68939;BMP180;59064;45.294;11.816;2023-03-22T03:09:04;101285.20;;;11.10
68939;BMP180;59064;45.294;11.816;2023-03-22T03:11:30;101282.60;;;11.10
68939;BMP180;59064;45.294;11.816;2023-03-22T03:13:56;101282.60;;;11.10
68939;BMP180;59064;45.294;11.816;2023-03-22T03:16:25;101285.40;;;11.10
68939;BMP180;59064;45.294;11.816;2023-03-22T03:19:19;101281.20;;;11.10
68939;BMP180;59064;45.294;11.816;2023-03-22T03:24:56;101289.40;;;11.04
68939;BMP180;59064;45.294;11.816;2023-03-22T03:27:48;101296.40;;;11.00
68939;BMP180;59064;45.294;11.816;2023-03-22T03:30:24;101295.60;;;11.02
68939;BMP180;59064;45.294;11.816;2023-03-22T03:33:01;101293.60;;;11.00
68939;BMP180;59064;45.294;11.816;2023-03-22T03:35:32;101293.00;;;11.00
68939;BMP180;59064;45.294;11.816;2023-03-22T03:38:15;101295.80;;;11.00
68939;BMP180;59064;45.294;11.816;2023-03-22T03:41:02;101295.60;;;10.90
68939;BMP180;59064;45.294;11.816;2023-03-22T03:43:29;101295.00;;;10.86
68939;BMP180;59064;45.294;11.816;2023-03-22T03:45:56;101296.20;;;10.80
68939;BMP180;59064;45.294;11.816;2023-03-22T03:48:28;101296.40;;;10.80
68939;BMP180;59064;45.294;11.816;2023-03-22T03:50:55;101299.20;;;10.80
68939;BMP180;59064;45.294;11.816;2023-03-22T03:53:22;101298.20;;;10.80
68939;BMP180;59064;45.294;11.816;2023-03-22T03:55:48;101303.20;;;10.80
68939;BMP180;59064;45.294;11.816;2023-03-22T03:58:14;101305.20;;;10.80
68939;BMP180;59064;45.294;11.816;2023-03-22T04:00:41;101305.80;;;10.82
68939;BMP180;59064;45.294;11.816;2023-03-22T04:03:07;101307.40;;;10.86
68939;BMP180;59064;45.294;11.816;2023-03-22T04:05:33;101309.40;;;10.90
68939;BMP180;59064;45.294;11.816;2023-03-22T04:07:59;101306.80;;;10.90
68939;BMP180;59064;45.294;11.816;2023-03-22T04:10:24;101306.40;;;10.90
68939;BMP180;59064;45.294;11.816;2023-03-22T04:12:50;101308.00;;;10.82
68939;BMP180;59064;45.294;11.816;2023-03-22T04:15:16;101311.40;;;10.80
68939;BMP180;59064;45.294;11.816;2023-03-22T04:17:41;101312.40;;;10.80
68939;BMP180;59064;45.294;11.816;2023-03-22T04:20:09;101316.40;;;10.80
68939;BMP180;59064;45.294;11.816;2023-03-22T04:22:36;101310.60;;;10.80
68939;BMP180;59064;45.294;11.816;2023-03-22T04:25:08;101312.80;;;10.80
68939;BMP180;59064;45.294;11.816;2023-03-22T04:27:38;101314.60;;;10.80
68939;BMP180;59064;45.294;11.816;2023-03-22T04:30:07;101319.80;;;10.80
68939;BMP180;59064;45.294;11.816;2023-03-22T04:32:35;101320.60;;;10.72
68939;BMP180;59064;45.294;11.816;2023-03-22T04:35:02;101313.00;;;10.70
68939;BMP180;59064;45.294;11.816;2023-03-22T04:37:29;101317.00;;;10.70
68939;BMP180;59064;45.294;11.816;2023-03-22T04:39:58;101319.20;;;10.70
68939;BMP180;59064;45.294;11.816;2023-03-22T04:42:24;101317.80;;;10.60
68939;BMP180;59064;45.294;11.816;2023-03-22T04:44:50;101318.80;;;10.50
68939;BMP180;59064;45.294;11.816;2023-03-22T04:47:16;101315.40;;;10.40
68939;BMP180;59064;45.294;11.816;2023-03-22T04:49:42;101317.20;;;10.30
68939;BMP180;59064;45.294;11.816;2023-03-22T04:52:08;101315.60;;;10.30
68939;BMP180;59064;45.294;11.816;2023-03-22T04:54:34;101313.20;;;10.20
68939;BMP180;59064;45.294;11.816;2023-03-22T04:57:00;101311.40;;;10.20
68939;BMP180;59064;45.294;11.816;2023-03-22T04:59:26;101311.40;;;10.10
68939;BMP180;59064;45.294;11.816;2023-03-22T05:01:51;101313.40;;;10.10
68939;BMP180;59064;45.294;11.816;2023-03-22T05:04:18;101313.80;;;10.00
68939;BMP180;59064;45.294;11.816;2023-03-22T05:06:44;101317.60;;;10.00
68939;BMP180;59064;45.294;11.816;2023-03-22T05:09:12;101313.00;;;9.98
68939;BMP180;59064;45.294;11.816;2023-03-22T05:11:38;101316.40;;;9.90
68939;BMP180;59064;45.294;11.816;2023-03-22T05:14:05;101316.20;;;9.90
68939;BMP180;59064;45.294;11.816;2023-03-22T05:16:32;101317.40;;;9.90
68939;BMP180;59064;45.294;11.816;2023-03-22T05:18:57;101313.80;;;9.90
68939;BMP180;59064;45.294;11.816;2023-03-22T05:21:27;101315.80;;;9.90
68939;BMP180;59064;45.294;11.816;2023-03-22T05:23:57;101318.20;;;9.90
68939;BMP180;59064;45.294;11.816;2023-03-22T05:26:24;101321.80;;;9.90
68939;BMP180;59064;45.294;11.816;2023-03-22T05:28:52;101322.40;;;9.88
68939;BMP180;59064;45.294;11.816;2023-03-22T05:31:19;101323.60;;;9.90
68939;BMP180;59064;45.294;11.816;2023-03-22T05:33:50;101327.20;;;9.90
68939;BMP180;59064;45.294;11.816;2023-03-22T05:36:17;101325.00;;;9.80
68939;BMP180;59064;45.294;11.816;2023-03-22T05:38:44;101323.20;;;9.78
68939;BMP180;59064;45.294;11.816;2023-03-22T05:41:12;101329.40;;;9.70
68939;BMP180;59064;45.294;11.816;2023-03-22T05:43:38;101333.00;;;9.74
68939;BMP180;59064;45.294;11.816;2023-03-22T05:46:08;101337.80;;;9.76
68939;BMP180;59064;45.294;11.816;2023-03-22T05:48:36;101341.00;;;9.80
68939;BMP180;59064;45.294;11.816;2023-03-22T05:51:07;101343.60;;;9.80
68939;BMP180;59064;45.294;11.816;2023-03-22T05:53:33;101340.00;;;9.90
68939;BMP180;59064;45.294;11.816;2023-03-22T05:56:00;101340.60;;;9.90
68939;BMP180;59064;45.294;11.816;2023-03-22T05:58:28;101337.60;;;9.90
68939;BMP180;59064;45.294;11.816;2023-03-22T06:00:56;101338.60;;;10.00
68939;BMP180;59064;45.294;11.816;2023-03-22T06:03:26;101339.20;;;10.00
68939;BMP180;59064;45.294;11.816;2023-03-22T06:05:52;101337.80;;;10.10
68939;BMP180;59064;45.294;11.816;2023-03-22T06:08:20;101336.80;;;10.10
68939;BMP180;59064;45.294;11.816;2023-03-22T06:10:50;101334.00;;;10.20
68939;BMP180;59064;45.294;11.816;2023-03-22T06:13:17;101338.60;;;10.20
68939;BMP180;59064;45.294;11.816;2023-03-22T06:15:44;101342.60;;;10.30
68939;BMP180;59064;45.294;11.816;2023-03-22T06:18:09;101343.40;;;10.30
68939;BMP180;59064;45.294;11.816;2023-03-22T06:20:35;101343.00;;;10.40
68939;BMP180;59064;45.294;11.816;2023-03-22T06:23:03;101347.60;;;10.50
68939;BMP180;59064;45.294;11.816;2023-03-22T06:25:28;101346.20;;;10.58
68939;BMP180;59064;45.294;11.816;2023-03-22T06:27:54;101344.60;;;10.60
68939;BMP180;59064;45.294;11.816;2023-03-22T06:30:20;101347.80;;;10.70
68939;BMP180;59064;45.294;11.816;2023-03-22T06:32:46;101354.00;;;10.70
68939;BMP180;59064;45.294;11.816;2023-03-22T06:35:11;101357.20;;;10.82
68939;BMP180;59064;45.294;11.816;2023-03-22T06:37:37;101359.20;;;11.00
68939;BMP180;59064;45.294;11.816;2023-03-22T06:40:04;101361.40;;;11.20
68939;BMP180;59064;45.294;11.816;2023-03-22T06:42:29;101358.80;;;11.50
68939;BMP180;59064;45.294;11.816;2023-03-22T06:44:56;101363.40;;;11.80
68939;BMP180;59064;45.294;11.816;2023-03-22T06:47:23;101364.40;;;12.00
68939;BMP180;59064;45.294;11.816;2023-03-22T06:49:49;101362.40;;;12.22
68939;BMP180;59064;45.294;11.816;2023-03-22T06:52:15;101362.00;;;12.56
68939;BMP180;59064;45.294;11.816;2023-03-22T06:54:41;101362.80;;;12.90
68939;BMP180;59064;45.294;11.816;2023-03-22T06:57:06;101365.20;;;13.28
68939;BMP180;59064;45.294;11.816;2023-03-22T06:59:32;101367.60;;;13.50
68939;BMP180;59064;45.294;11.816;2023-03-22T07:01:58;101373.20;;;13.60
68939;BMP180;59064;45.294;11.816;2023-03-22T07:04:24;101373.80;;;13.70
68939;BMP180;59064;45.294;11.816;2023-03-22T07:06:50;101370.00;;;13.80
68939;BMP180;59064;45.294;11.816;2023-03-22T07:09:16;101371.80;;;14.00
68939;BMP180;59064;45.294;11.816;2023-03-22T07:11:42;101374.80;;;14.20
68939;BMP180;59064;45.294;11.816;2023-03-22T07:14:08;101377.80;;;14.30
68939;BMP180;59064;45.294;11.816;2023-03-22T07:16:34;101381.60;;;14.40
68939;BMP180;59064;45.294;11.816;2023-03-22T07:19:00;101384.00;;;14.40
68939;BMP180;59064;45.294;11.816;2023-03-22T07:21:26;101380.80;;;14.40
68939;BMP180;59064;45.294;11.816;2023-03-22T07:23:52;101384.20;;;14.50
68939;BMP180;59064;45.294;11.816;2023-03-22T07:26:17;101389.80;;;14.66
68939;BMP180;59064;45.294;11.816;2023-03-22T07:28:43;101396.40;;;14.80
68939;BMP180;59064;45.294;11.816;2023-03-22T07:31:11;101398.00;;;15.00
68939;BMP180;59064;45.294;11.816;2023-03-22T07:33:38;101401.80;;;15.18
68939;BMP180;59064;45.294;11.816;2023-03-22T07:36:05;101403.80;;;15.30
68939;BMP180;59064;45.294;11.816;2023-03-22T07:38:31;101404.00;;;15.40
68939;BMP180;59064;45.294;11.816;2023-03-22T07:40:57;101407.60;;;15.30
68939;BMP180;59064;45.294;11.816;2023-03-22T07:43:23;101404.60;;;15.20
68939;BMP180;59064;45.294;11.816;2023-03-22T07:45:49;101403.60;;;15.20
68939;BMP180;59064;45.294;11.816;2023-03-22T07:48:16;101407.00;;;15.12
68939;BMP180;59064;45.294;11.816;2023-03-22T07:50:44;101411.00;;;15.10
68939;BMP180;59064;45.294;11.816;2023-03-22T07:53:10;101411.20;;;15.10
68939;BMP180;59064;45.294;11.816;2023-03-22T07:55:37;101411.60;;;15.00
68939;BMP180;59064;45.294;11.816;2023-03-22T07:58:04;101411.20;;;15.00
68939;BMP180;59064;45.294;11.816;2023-03-22T08:00:31;101413.60;;;15.00
68939;BMP180;59064;45.294;11.816;2023-03-22T08:02:57;101419.20;;;15.00
68939;BMP180;59064;45.294;11.816;2023-03-22T08:05:23;101419.20;;;15.00
68939;BMP180;59064;45.294;11.816;2023-03-22T08:07:50;101417.80;;;15.20
68939;BMP180;59064;45.294;11.816;2023-03-22T08:10:17;101420.00;;;15.40
68939;BMP180;59064;45.294;11.816;2023-03-22T08:12:42;101415.20;;;15.66
68939;BMP180;59064;45.294;11.816;2023-03-22T08:15:09;101419.20;;;15.90
68939;BMP180;59064;45.294;11.816;2023-03-22T08:17:35;101420.00;;;16.00
68939;BMP180;59064;45.294;11.816;2023-03-22T08:20:02;101419.40;;;16.20
68939;BMP180;59064;45.294;11.816;2023-03-22T08:22:32;101420.60;;;16.38
68939;BMP180;59064;45.294;11.816;2023-03-22T08:24:58;101424.80;;;16.60
68939;BMP180;59064;45.294;11.816;2023-03-22T08:27:23;101426.40;;;16.88
68939;BMP180;59064;45.294;11.816;2023-03-22T08:29:49;101425.00;;;17.16
68939;BMP180;59064;45.294;11.816;2023-03-22T08:32:16;101428.20;;;17.40
68939;BMP180;59064;45.294;11.816;2023-03-22T08:34:42;101431.40;;;17.58
68939;BMP180;59064;45.294;11.816;2023-03-22T08:37:09;101429.80;;;17.70
68939;BMP180;59064;45.294;11.816;2023-03-22T08:39:37;101432.00;;;17.88
68939;BMP180;59064;45.294;11.816;2023-03-22T08:42:03;101427.60;;;18.30
68939;BMP180;59064;45.294;11.816;2023-03-22T08:44:29;101427.40;;;18.62
68939;BMP180;59064;45.294;11.816;2023-03-22T08:46:55;101426.00;;;19.06
68939;BMP180;59064;45.294;11.816;2023-03-22T08:49:21;101427.40;;;19.40
68939;BMP180;59064;45.294;11.816;2023-03-22T08:51:47;101433.60;;;19.58
68939;BMP180;59064;45.294;11.816;2023-03-22T08:54:13;101435.20;;;19.78
68939;BMP180;59064;45.294;11.816;2023-03-22T08:56:39;101431.80;;;19.80
68939;BMP180;59064;45.294;11.816;2023-03-22T08:59:07;101428.20;;;19.90
68939;BMP180;59064;45.294;11.816;2023-03-22T09:01:35;101430.00;;;20.14
68939;BMP180;59064;45.294;11.816;2023-03-22T09:04:02;101430.80;;;20.44
68939;BMP180;59064;45.294;11.816;2023-03-22T09:06:28;101435.00;;;20.74
68939;BMP180;59064;45.294;11.816;2023-03-22T09:08:55;101435.40;;;21.10
68939;BMP180;59064;45.294;11.816;2023-03-22T09:11:21;101438.40;;;21.10
68939;BMP180;59064;45.294;11.816;2023-03-22T09:13:48;101438.80;;;21.10
68939;BMP180;59064;45.294;11.816;2023-03-22T09:16:14;101437.60;;;21.20
68939;BMP180;59064;45.294;11.816;2023-03-22T09:18:41;101437.20;;;21.00
68939;BMP180;59064;45.294;11.816;2023-03-22T09:21:08;101439.00;;;21.10
68939;BMP180;59064;45.294;11.816;2023-03-22T09:23:35;101438.60;;;21.10
68939;BMP180;59064;45.294;11.816;2023-03-22T09:26:06;101441.80;;;21.04
68939;BMP180;59064;45.294;11.816;2023-03-22T09:28:33;101439.60;;;21.20
68939;BMP180;59064;45.294;11.816;2023-03-22T09:31:01;101440.80;;;21.10
68939;BMP180;59064;45.294;11.816;2023-03-22T09:33:27;101437.40;;;21.10
68939;BMP180;59064;45.294;11.816;2023-03-22T09:35:54;101435.80;;;21.00
68939;BMP180;59064;45.294;11.816;2023-03-22T09:38:22;101438.40;;;21.10
68939;BMP180;59064;45.294;11.816;2023-03-22T09:43:17;101432.60;;;21.40
68939;BMP180;59064;45.294;11.816;2023-03-22T09:45:46;101432.00;;;21.54
68939;BMP180;59064;45.294;11.816;2023-03-22T09:48:33;101429.40;;;21.80
68939;BMP180;59064;45.294;11.816;2023-03-22T09:51:01;101426.80;;;21.96
68939;BMP180;59064;45.294;11.816;2023-03-22T09:53:29;101423.60;;;22.10
68939;BMP180;59064;45.294;11.816;2023-03-22T09:56:28;101424.20;;;22.10
68939;BMP180;59064;45.294;11.816;2023-03-22T09:59:15;101425.60;;;21.84
68939;BMP180;59064;45.294;11.816;2023-03-22T10:01:58;101431.20;;;21.60
68939;BMP180;59064;45.294;11.816;2023-03-22T10:04:48;101426.00;;;21.60
68939;BMP180;59064;45.294;11.816;2023-03-22T10:07:26;101425.20;;;21.60
68939;BMP180;59064;45.294;11.816;2023-03-22T10:10:08;101422.80;;;21.60
68939;BMP180;59064;45.294;11.816;2023-03-22T10:15:20;101419.20;;;21.78
68939;BMP180;59064;45.294;11.816;2023-03-22T10:17:52;101421.60;;;21.80
68939;BMP180;59064;45.294;11.816;2023-03-22T10:21:00;101421.80;;;21.90
68939;BMP180;59064;45.294;11.816;2023-03-22T10:26:43;101422.00;;;22.08
68939;BMP180;59064;45.294;11.816;2023-03-22T10:29:39;101418.00;;;21.90
68939;BMP180;59064;45.294;11.816;2023-03-22T10:32:29;101422.20;;;21.70
68939;BMP180;59064;45.294;11.816;2023-03-22T10:34:56;101422.00;;;21.80
68939;BMP180;59064;45.294;11.816;2023-03-22T10:37:31;101420.00;;;21.80
68939;BMP180;59064;45.294;11.816;2023-03-22T10:40:02;101415.80;;;21.62
68939;BMP180;59064;45.294;11.816;2023-03-22T10:42:37;101416.20;;;21.60
68939;BMP180;59064;45.294;11.816;2023-03-22T10:45:11;101415.40;;;21.80
68939;BMP180;59064;45.294;11.816;2023-03-22T10:47:44;101413.60;;;21.90
68939;BMP180;59064;45.294;11.816;2023-03-22T10:50:24;101412.20;;;21.90
68939;BMP180;59064;45.294;11.816;2023-03-22T10:55:30;101414.20;;;21.80
68939;BMP180;59064;45.294;11.816;2023-03-22T10:58:11;101407.00;;;21.84
68939;BMP180;59064;45.294;11.816;2023-03-22T11:00:46;101415.20;;;22.00
68939;BMP180;59064;45.294;11.816;2023-03-22T11:03:40;101408.40;;;22.00
68939;BMP180;59064;45.294;11.816;2023-03-22T11:06:21;101405.40;;;22.34
68939;BMP180;59064;45.294;11.816;2023-03-22T11:08:51;101402.80;;;22.68
68939;BMP180;59064;45.294;11.816;2023-03-22T11:11:35;101402.60;;;22.80
68939;BMP180;59064;45.294;11.816;2023-03-22T11:16:59;101400.80;;;22.60
68939;BMP180;59064;45.294;11.816;2023-03-22T11:19:30;101394.20;;;22.62
68939;BMP180;59064;45.294;11.816;2023-03-22T11:21:58;101392.60;;;22.88
68939;BMP180;59064;45.294;11.816;2023-03-22T11:24:29;101397.00;;;23.20
68939;BMP180;59064;45.294;11.816;2023-03-22T11:29:49;101389.40;;;23.20
68939;BMP180;59064;45.294;11.816;2023-03-22T11:32:30;101385.80;;;23.40
68939;BMP180;59064;45.294;11.816;2023-03-22T11:40:13;101382.20;;;23.40
68939;BMP180;59064;45.294;11.816;2023-03-22T11:42:40;101380.40;;;23.44
68939;BMP180;59064;45.294;11.816;2023-03-22T11:45:07;101379.60;;;23.54
68939;BMP180;59064;45.294;11.816;2023-03-22T11:47:36;101372.40;;;23.68
68939;BMP180;59064;45.294;11.816;2023-03-22T11:50:05;101369.80;;;23.80
68939;BMP180;59064;45.294;11.816;2023-03-22T11:52:35;101367.20;;;23.98
68939;BMP180;59064;45.294;11.816;2023-03-22T11:55:02;101367.20;;;24.16
68939;BMP180;59064;45.294;11.816;2023-03-22T11:57:30;101371.00;;;24.44
68939;BMP180;59064;45.294;11.816;2023-03-22T12:00:11;101363.80;;;24.70
68939;BMP180;59064;45.294;11.816;2023-03-22T12:05:48;101358.60;;;24.50
68939;BMP180;59064;45.294;11.816;2023-03-22T12:11:11;101346.40;;;25.00
68939;BMP180;59064;45.294;11.816;2023-03-22T12:13:44;101341.60;;;25.00
68939;BMP180;59064;45.294;11.816;2023-03-22T12:16:14;101339.80;;;24.78
68939;BMP180;59064;45.294;11.816;2023-03-22T12:19:05;101334.60;;;24.72
68939;BMP180;59064;45.294;11.816;2023-03-22T12:21:36;101329.00;;;24.72
68939;BMP180;59064;45.294;11.816;2023-03-22T12:24:20;101333.20;;;24.92
68939;BMP180;59064;45.294;11.816;2023-03-22T12:26:48;101326.60;;;25.10
68939;BMP180;59064;45.294;11.816;2023-03-22T12:29:15;101325.00;;;25.36
68939;BMP180;59064;45.294;11.816;2023-03-22T12:31:55;101315.20;;;25.70
68939;BMP180;59064;45.294;11.816;2023-03-22T12:34:31;101317.20;;;25.80
68939;BMP180;59064;45.294;11.816;2023-03-22T12:37:01;101310.40;;;25.42
68939;BMP180;59064;45.294;11.816;2023-03-22T12:39:44;101308.80;;;25.36
68939;BMP180;59064;45.294;11.816;2023-03-22T12:45:24;101308.20;;;25.30
68939;BMP180;59064;45.294;11.816;2023-03-22T12:47:58;101304.40;;;25.70
68939;BMP180;59064;45.294;11.816;2023-03-22T12:50:39;101306.40;;;25.76
68939;BMP180;59064;45.294;11.816;2023-03-22T12:53:12;101301.20;;;26.32
68939;BMP180;59064;45.294;11.816;2023-03-22T12:55:40;101296.60;;;26.52
68939;BMP180;59064;45.294;11.816;2023-03-22T12:58:07;101298.20;;;26.44
68939;BMP180;59064;45.294;11.816;2023-03-22T13:00:39;101299.40;;;26.20
68939;BMP180;59064;45.294;11.816;2023-03-22T13:05:44;101302.60;;;26.40
68939;BMP180;59064;45.294;11.816;2023-03-22T13:08:11;101302.00;;;26.40
68939;BMP180;59064;45.294;11.816;2023-03-22T13:10:49;101301.40;;;26.52
68939;BMP180;59064;45.294;11.816;2023-03-22T13:23:34;101292.00;;;26.70
68939;BMP180;59064;45.294;11.816;2023-03-22T13:26:04;101294.80;;;26.60
68939;BMP180;59064;45.294;11.816;2023-03-22T13:28:31;101287.80;;;26.50
68939;BMP180;59064;45.294;11.816;2023-03-22T13:31:02;101292.20;;;26.16
68939;BMP180;59064;45.294;11.816;2023-03-22T13:33:33;101288.40;;;25.94
68939;BMP180;59064;45.294;11.816;2023-03-22T13:38:56;101292.00;;;26.30
68939;BMP180;59064;45.294;11.816;2023-03-22T13:41:28;101286.80;;;26.68
68939;BMP180;59064;45.294;11.816;2023-03-22T13:43:56;101289.00;;;27.10
68939;BMP180;59064;45.294;11.816;2023-03-22T13:46:28;101289.40;;;27.60
68939;BMP180;59064;45.294;11.816;2023-03-22T13:49:49;101289.20;;;27.68
68939;BMP180;59064;45.294;11.816;2023-03-22T13:52:40;101283.60;;;27.56
68939;BMP180;59064;45.294;11.816;2023-03-22T13:55:37;101284.00;;;27.34
68939;BMP180;59064;45.294;11.816;2023-03-22T13:58:12;101281.60;;;27.30
68939;BMP180;59064;45.294;11.816;2023-03-22T14:01:03;101276.80;;;27.50
68939;BMP180;59064;45.294;11.816;2023-03-22T14:03:36;101275.00;;;27.80
68939;BMP180;59064;45.294;11.816;2023-03-22T14:06:19;101266.80;;;28.20
68939;BMP180;59064;45.294;11.816;2023-03-22T14:08:49;101267.60;;;28.30
68939;BMP180;59064;45.294;11.816;2023-03-22T14:11:44;101267.00;;;28.30
68939;BMP180;59064;45.294;11.816;2023-03-22T14:14:24;101267.40;;;28.40
68939;BMP180;59064;45.294;11.816;2023-03-22T14:19:45;101264.20;;;28.58
68939;BMP180;59064;45.294;11.816;2023-03-22T14:22:16;101258.60;;;28.50
68939;BMP180;59064;45.294;11.816;2023-03-22T14:24:45;101256.80;;;28.62
68939;BMP180;59064;45.294;11.816;2023-03-22T14:27:16;101253.40;;;28.62
68939;BMP180;59064;45.294;11.816;2023-03-22T14:29:45;101250.20;;;28.50
68939;BMP180;59064;45.294;11.816;2023-03-22T14:32:29;101249.80;;;28.50
68939;BMP180;59064;45.294;11.816;2023-03-22T14:35:09;101247.60;;;28.70
68939;BMP180;59064;45.294;11.816;2023-03-22T14:37:42;101244.60;;;28.70
68939;BMP180;59064;45.294;11.816;2023-03-22T14:40:31;101242.60;;;28.70
68939;BMP180;59064;45.294;11.816;2023-03-22T14:43:12;101245.80;;;28.94
68939;BMP180;59064;45.294;11.816;2023-03-22T14:45:38;101240.20;;;29.32
68939;BMP180;59064;45.294;11.816;2023-03-22T14:48:18;101236.60;;;29.64
68939;BMP180;59064;45.294;11.816;2023-03-22T14:50:49;101235.40;;;29.78
68939;BMP180;59064;45.294;11.816;2023-03-22T14:53:26;101233.80;;;29.92
68939;BMP180;59064;45.294;11.816;2023-03-22T14:55:53;101229.20;;;29.88
68939;BMP180;59064;45.294;11.816;2023-03-22T14:58:31;101229.20;;;29.72
68939;BMP180;59064;45.294;11.816;2023-03-22T15:01:10;101225.00;;;29.62
68939;BMP180;59064;45.294;11.816;2023-03-22T15:03:38;101220.20;;;29.24
68939;BMP180;59064;45.294;11.816;2023-03-22T15:06:07;101215.20;;;28.66
68939;BMP180;59064;45.294;11.816;2023-03-22T15:08:33;101208.20;;;28.50
68939;BMP180;59064;45.294;11.816;2023-03-22T15:11:03;101207.60;;;28.22
68939;BMP180;59064;45.294;11.816;2023-03-22T15:13:33;101207.80;;;28.20
68939;BMP180;59064;45.294;11.816;2023-03-22T15:16:02;101202.00;;;28.10
68939;BMP180;59064;45.294;11.816;2023-03-22T15:18:30;101202.20;;;28.16
68939;BMP180;59064;45.294;11.816;2023-03-22T15:20:56;101199.80;;;28.20